createdAt,value
2023-04-24T00:02:21.014Z,99659.13
2023-04-24T00:05:23.897Z,99657.84
2023-04-24T00:08:26.318Z,99654.78
2023-04-24T00:11:29.044Z,99649.75
2023-04-24T00:14:31.673Z,99596.34
2023-04-24T00:17:34.102Z,99644.47
2023-04-24T00:20:39.477Z,99643.97
2023-04-24T00:23:42.096Z,99647.03
2023-04-24T00:26:44.537Z,99635.91
2023-04-24T00:29:46.910Z,99637.88
2023-04-24T00:32:49.301Z,99646.06
2023-04-24T00:35:51.670Z,99637.88
2023-04-24T00:38:54.848Z,99631.59
2023-04-24T00:41:57.944Z,99636.44
2023-04-24T00:45:00.632Z,99637.59
2023-04-24T00:48:03.590Z,99641.78
2023-04-24T00:51:06.208Z,99626.28
2023-04-24T00:54:08.697Z,99638.56
2023-04-24T00:57:11.471Z,99644.66
2023-04-24T01:00:14.476Z,99642.56
2023-04-24T01:03:19.070Z,99623.34
2023-04-24T01:06:22.230Z,99632.34
2023-04-24T01:09:25.427Z,99635.28
2023-04-24T01:12:27.884Z,99638.97
2023-04-24T01:15:30.176Z,99630.75
2023-04-24T01:18:33.418Z,99629.28
2023-04-24T01:21:38.341Z,99631.69
2023-04-24T01:24:40.902Z,99631.69
2023-04-24T01:27:43.269Z,99623.81
2023-04-24T01:30:47.604Z,99616.72
2023-04-24T01:33:51.077Z,99621.72
2023-04-24T01:36:53.431Z,99619.66
2023-04-24T01:39:55.791Z,99624.94
2023-04-24T01:42:59.473Z,99614.31
2023-04-24T01:46:01.860Z,99620.25
2023-04-24T01:49:04.323Z,99618.34
2023-04-24T01:52:06.763Z,99613.03
2023-04-24T01:55:09.576Z,99603.22
2023-04-24T01:58:12.015Z,99611.94
2023-04-24T02:01:26.126Z,99602.91
2023-04-24T02:04:28.678Z,99600.50
2023-04-24T02:07:31.176Z,99601.78
2023-04-24T02:10:33.788Z,99602.75
2023-04-24T02:13:36.058Z,99598.59
2023-04-24T02:16:38.357Z,99593.06
2023-04-24T02:19:40.998Z,99579.97
2023-04-24T02:22:43.451Z,99589.03
2023-04-24T02:25:46.755Z,99585.38
2023-04-24T02:28:49.044Z,99582.56
2023-04-24T02:31:51.510Z,99563.03
2023-04-24T02:34:53.879Z,99568.59
2023-04-24T02:37:56.367Z,99571.81
2023-04-24T02:40:58.802Z,99577.47
2023-04-24T02:44:02.388Z,99563.84
2023-04-24T02:47:05.465Z,99572.53
2023-04-24T02:50:08.753Z,99559.88
2023-04-24T02:53:11.161Z,99573.03
2023-04-24T02:56:14.144Z,99571.41
2023-04-24T02:59:16.610Z,99578.16
2023-04-24T03:02:19.051Z,99569.72
2023-04-24T03:05:21.555Z,99566.22
2023-04-24T03:08:25.036Z,99565.22
2023-04-24T03:11:27.379Z,99547.84
2023-04-24T03:14:32.350Z,99557.94
2023-04-24T03:17:34.663Z,99567.22
2023-04-24T03:20:38.662Z,99555.28
2023-04-24T03:23:41.263Z,99567.06
2023-04-24T03:26:44.888Z,99546.13
2023-04-24T03:29:59.402Z,99554.97
2023-04-24T03:33:09.605Z,99556.13
2023-04-24T03:36:16.529Z,99558.84
2023-04-24T03:39:19.823Z,99555.75
2023-04-24T03:42:28.172Z,99556.25
2023-04-24T03:45:32.072Z,99546.41
2023-04-24T03:48:34.499Z,99540.78
2023-04-24T03:51:37.930Z,99554.19
2023-04-24T03:54:53.406Z,99537.91
2023-04-24T03:57:55.820Z,99537.91
2023-04-24T04:00:59.468Z,99548.09
2023-04-24T04:04:23.560Z,99541.00
2023-04-24T04:07:26.887Z,99545.75
2023-04-24T04:10:29.574Z,99535.53
2023-04-24T04:13:32.531Z,99546.84
2023-04-24T04:16:37.524Z,99554.28
2023-04-24T04:19:42.411Z,99547.50
2023-04-24T04:22:45.184Z,99552.03
2023-04-24T04:25:53.116Z,99548.97
2023-04-24T04:29:01.696Z,99548.00
2023-04-24T04:32:05.292Z,99544.47
2023-04-24T04:35:08.205Z,99542.34
2023-04-24T04:38:12.052Z,99556.34
2023-04-24T04:41:32.594Z,99553.28
2023-04-24T04:44:36.942Z,99554.09
2023-04-24T04:47:41.248Z,99541.50
2023-04-24T04:50:44.724Z,99555.06
2023-04-24T04:53:47.013Z,99551.84
2023-04-24T04:56:51.937Z,99548.00
2023-04-24T04:59:54.697Z,99545.78
2023-04-24T05:03:20.596Z,99543.53
2023-04-24T05:06:27.261Z,99548.69
2023-04-24T05:09:30.672Z,99548.69
2023-04-24T05:12:38.384Z,99551.06
2023-04-24T05:15:41.009Z,99550.25
2023-04-24T05:18:43.507Z,99545.47
2023-04-24T05:21:49.841Z,99546.56
2023-04-24T05:24:52.161Z,99548.97
2023-04-24T05:28:14.365Z,99547.72
2023-04-24T05:31:18.906Z,99538.50
2023-04-24T05:34:21.646Z,99554.00
2023-04-24T05:37:28.757Z,99544.34
2023-04-24T05:40:31.699Z,99550.47
2023-04-24T05:43:34.233Z,99544.34
2023-04-24T05:46:36.694Z,99532.56
2023-04-24T05:49:39.012Z,99542.34
2023-04-24T05:52:41.934Z,99546.22
2023-04-24T05:55:57.756Z,99548.13
2023-04-24T05:59:00.832Z,99543.94
2023-04-24T06:02:03.217Z,99546.78
2023-04-24T06:05:08.583Z,99547.81
2023-04-24T06:08:12.075Z,99545.19
2023-04-24T06:11:16.011Z,99540.06
2023-04-24T06:14:19.191Z,99539.28
2023-04-24T06:17:47.996Z,99526.25
2023-04-24T06:20:52.917Z,99528.41
2023-04-24T06:23:57.111Z,99521.59
2023-04-24T06:27:01.011Z,99514.28
2023-04-24T06:30:03.948Z,99519.31
2023-04-24T06:33:19.575Z,99515.31
2023-04-24T06:36:23.559Z,99516.25
2023-04-24T06:39:25.979Z,99503.16
2023-04-24T06:42:28.391Z,99506.94
2023-04-24T06:45:32.032Z,99500.88
2023-04-24T06:48:34.808Z,99501.69
2023-04-24T06:51:37.486Z,99512.91
2023-04-24T06:54:39.811Z,99511.78
2023-04-24T06:57:42.355Z,99504.75
2023-04-24T07:00:44.766Z,99509.81
2023-04-24T07:03:47.273Z,99510.25
2023-04-24T07:06:55.591Z,99498.41
2023-04-24T07:09:58.774Z,99503.63
2023-04-24T07:13:01.146Z,99509.78
2023-04-24T07:16:03.550Z,99507.53
2023-04-24T07:19:05.975Z,99497.19
2023-04-24T07:22:08.357Z,99498.72
2023-04-24T07:25:10.940Z,99499.66
2023-04-24T07:28:13.259Z,99492.09
2023-04-24T07:31:15.786Z,99496.25
2023-04-24T07:34:18.177Z,99483.97
2023-04-24T07:37:21.273Z,99490.13
2023-04-24T07:40:24.470Z,99495.03
2023-04-24T07:43:26.932Z,99500.91
2023-04-24T07:46:31.198Z,99498.84
2023-04-24T07:49:35.309Z,99494.31
2023-04-24T07:52:37.819Z,99497.25
2023-04-24T07:55:40.269Z,99487.94
2023-04-24T07:58:42.513Z,99483.38
2023-04-24T08:01:44.860Z,99478.31
2023-04-24T08:04:47.392Z,99482.69
2023-04-24T08:07:51.439Z,99473.53
2023-04-24T08:10:53.789Z,99435.03
2023-04-24T08:13:56.303Z,99480.59
2023-04-24T08:17:00.615Z,99483.19
2023-04-24T08:20:06.244Z,99482.59
2023-04-24T08:23:08.688Z,99487.13
2023-04-24T08:26:12.269Z,99477.94
2023-04-24T08:29:14.597Z,99468.25
2023-04-24T08:32:17.160Z,99466.50
2023-04-24T08:35:19.802Z,99465.25
2023-04-24T08:38:22.223Z,99445.38
2023-04-24T08:41:27.245Z,99473.47
2023-04-24T08:44:29.593Z,99470.63
2023-04-24T08:47:32.158Z,99459.78
2023-04-24T08:50:34.860Z,99455.78
2023-04-24T08:53:37.830Z,99452.78
2023-04-24T08:56:40.558Z,99452.81
2023-04-24T08:59:43.935Z,99450.38
2023-04-24T09:02:47.471Z,99458.25
2023-04-24T09:05:51.570Z,99450.06
2023-04-24T09:08:57.592Z,99466.69
2023-04-24T09:12:00.328Z,99466.47
2023-04-24T09:15:04.982Z,99456.84
2023-04-24T09:18:07.609Z,99451.69
2023-04-24T09:21:10.898Z,99455.53
2023-04-24T09:24:23.684Z,99449.50
2023-04-24T09:27:26.119Z,99448.19
2023-04-24T09:30:28.435Z,99448.66
2023-04-24T09:33:30.959Z,99447.78
2023-04-24T09:36:42.083Z,99449.44
2023-04-24T09:39:44.688Z,99445.88
2023-04-24T09:42:57.890Z,99432.59
2023-04-24T09:46:02.160Z,99436.28
2023-04-24T09:49:31.102Z,99438.72
2023-04-24T09:52:33.487Z,99433.72
2023-04-24T09:55:42.138Z,99433.22
2023-04-24T09:58:44.403Z,99438.09
2023-04-24T10:01:47.422Z,99422.75
2023-04-24T10:05:01.361Z,99432.53
2023-04-24T10:08:07.810Z,99436.75
2023-04-24T10:11:12.016Z,99437.22
2023-04-24T10:14:15.076Z,99438.28
2023-04-24T10:17:17.546Z,99422.06
2023-04-24T10:20:25.188Z,99441.59
2023-04-24T10:23:27.580Z,99433.16
2023-04-24T10:26:30.080Z,99426.94
2023-04-24T10:29:33.087Z,99416.03
2023-04-24T10:32:35.702Z,99441.63
2023-04-24T10:35:42.484Z,99433.31
2023-04-24T10:38:45.340Z,99434.63
2023-04-24T10:41:48.131Z,99438.84
2023-04-24T10:44:50.942Z,99437.44
2023-04-24T10:48:05.058Z,99445.19
2023-04-24T10:51:13.409Z,99437.66
2023-04-24T10:54:25.591Z,99457.19
2023-04-24T10:57:31.735Z,99448.16
2023-04-24T11:00:34.304Z,99457.22
2023-04-24T11:03:37.845Z,99456.94
2023-04-24T11:06:44.468Z,99450.25
2023-04-24T11:09:46.872Z,99462.53
2023-04-24T11:12:49.543Z,99465.38
2023-04-24T11:16:15.046Z,99461.44
2023-04-24T11:19:20.550Z,99460.19
2023-04-24T11:22:25.090Z,99457.97
2023-04-24T11:25:33.940Z,99454.91
2023-04-24T11:28:36.966Z,99465.44
2023-04-24T11:31:40.950Z,99462.47
2023-04-24T11:34:43.499Z,99449.41
2023-04-24T11:38:02.772Z,99447.34
2023-04-24T11:41:10.164Z,99438.91
2023-04-24T11:44:13.227Z,99433.00
2023-04-24T11:47:16.389Z,99433.25
2023-04-24T11:50:20.385Z,99425.91
2023-04-24T11:53:23.027Z,99429.97
2023-04-24T11:56:25.941Z,99428.28
2023-04-24T11:59:28.633Z,99422.91
2023-04-24T12:02:31.152Z,99423.66
2023-04-24T12:05:34.050Z,99413.47
2023-04-24T12:08:38.304Z,99416.13
2023-04-24T12:11:54.987Z,99415.03
2023-04-24T12:14:59.547Z,99412.91
2023-04-24T12:18:02.244Z,99406.78
2023-04-24T12:21:36.683Z,99406.78
2023-04-24T12:25:07.020Z,99407.72
2023-04-24T12:28:13.744Z,99399.34
2023-04-24T12:31:16.757Z,99407.28
2023-04-24T12:34:22.906Z,99412.75
2023-04-24T12:37:33.731Z,99399.72
2023-04-24T12:40:36.234Z,99414.16
2023-04-24T12:43:39.135Z,99402.28
2023-04-24T12:46:41.632Z,99402.47
2023-04-24T12:49:45.211Z,99389.75
2023-04-24T12:52:47.536Z,99391.25
2023-04-24T12:55:54.009Z,99385.34
2023-04-24T12:58:56.403Z,99373.28
2023-04-24T13:01:58.812Z,99380.97
2023-04-24T13:05:01.537Z,99382.75
2023-04-24T13:08:04.047Z,99367.25
2023-04-24T13:11:06.630Z,99363.63
2023-04-24T13:14:08.992Z,99364.38
2023-04-24T13:17:12.971Z,99358.59
2023-04-24T13:20:15.529Z,99359.44
2023-04-24T13:23:18.280Z,99357.59
2023-04-24T13:26:21.003Z,99345.66
2023-04-24T13:29:23.684Z,99363.03
2023-04-24T13:32:26.884Z,99353.06
2023-04-24T13:35:29.287Z,99348.34
2023-04-24T13:38:31.729Z,99347.69
2023-04-24T13:41:35.210Z,99343.66
2023-04-24T13:44:37.552Z,99343.06
2023-04-24T13:47:41.916Z,99344.13
2023-04-24T13:50:44.611Z,99338.91
2023-04-24T13:53:46.948Z,99335.28
2023-04-24T13:56:49.311Z,99331.19
2023-04-24T13:59:51.847Z,99321.16
2023-04-24T14:02:54.294Z,99323.69
2023-04-24T14:05:56.842Z,99314.94
2023-04-24T14:08:59.181Z,99316.97
2023-04-24T14:12:03.058Z,99303.31
2023-04-24T14:15:06.189Z,99309.84
2023-04-24T14:18:08.690Z,99295.75
2023-04-24T14:21:11.101Z,99299.34
2023-04-24T14:24:13.520Z,99295.88
2023-04-24T14:27:16.060Z,99289.09
2023-04-24T14:30:19.009Z,99285.41
2023-04-24T14:33:21.619Z,99288.56
2023-04-24T14:36:24.117Z,99280.78
2023-04-24T14:39:26.555Z,99280.66
2023-04-24T14:42:29.894Z,99277.78
2023-04-24T14:45:32.299Z,99272.84
2023-04-24T14:48:34.795Z,99269.28
2023-04-24T14:51:40.148Z,99268.19
2023-04-24T14:54:42.468Z,99265.91
2023-04-24T14:57:45.053Z,99269.38
2023-04-24T15:00:47.439Z,99267.06
2023-04-24T15:03:50.324Z,99257.13
2023-04-24T15:06:54.984Z,99252.31
2023-04-24T15:09:58.185Z,99252.41
2023-04-24T15:13:00.517Z,99257.19
2023-04-24T15:16:03.430Z,99250.50
2023-04-24T15:19:05.985Z,99254.31
2023-04-24T15:22:08.499Z,99255.22
2023-04-24T15:25:11.699Z,99259.56
2023-04-24T15:28:14.756Z,99260.41
2023-04-24T15:31:17.760Z,99250.91
2023-04-24T15:34:20.190Z,99262.91
2023-04-24T15:37:22.496Z,99248.47
2023-04-24T15:40:24.996Z,99255.13
2023-04-24T15:43:27.382Z,99263.44
2023-04-24T15:46:29.819Z,99253.88
2023-04-24T15:49:33.649Z,99256.69
2023-04-24T15:52:36.306Z,99271.56
2023-04-24T15:55:38.778Z,99259.00
2023-04-24T15:58:41.413Z,99265.16
2023-04-24T16:01:43.791Z,99274.22
2023-04-24T16:04:47.304Z,99274.66
2023-04-24T16:07:49.715Z,99274.56
2023-04-24T16:10:52.849Z,99278.63
2023-04-24T16:13:55.580Z,99271.16
2023-04-24T16:16:58.017Z,99275.19
2023-04-24T16:20:00.403Z,99272.66
2023-04-24T16:23:03.070Z,99278.59
2023-04-24T16:26:05.776Z,99271.59
2023-04-24T16:29:08.205Z,99282.44
2023-04-24T16:32:11.287Z,99279.03
2023-04-24T16:35:13.742Z,99270.75
2023-04-24T16:38:16.478Z,99274.25
2023-04-24T16:41:18.935Z,99263.06
2023-04-24T16:44:21.585Z,99255.06
2023-04-24T16:47:23.919Z,99267.94
2023-04-24T16:50:26.334Z,99236.22
2023-04-24T16:53:28.642Z,99261.13
2023-04-24T16:56:31.355Z,99256.75
2023-04-24T16:59:35.022Z,99257.53
2023-04-24T17:02:37.598Z,99266.16
2023-04-24T17:05:40.038Z,99254.50
2023-04-24T17:08:42.558Z,99257.72
2023-04-24T17:11:45.117Z,99261.34
2023-04-24T17:14:47.529Z,99266.97
2023-04-24T17:17:50.673Z,99265.19
2023-04-24T17:20:53.096Z,99267.13
2023-04-24T17:23:55.624Z,99270.03
2023-04-24T17:27:04.800Z,99283.88
2023-04-24T17:30:15.057Z,99299.84
2023-04-24T17:33:17.639Z,99312.03
2023-04-24T17:36:20.239Z,99331.09
2023-04-24T17:39:22.633Z,99340.63
2023-04-24T17:42:24.969Z,99340.22
2023-04-24T17:45:27.296Z,99357.09
2023-04-24T17:48:29.812Z,99370.88
2023-04-24T17:51:32.906Z,99376.97
2023-04-24T17:54:35.794Z,99375.25
2023-04-24T17:57:38.224Z,99396.22
2023-04-24T18:00:41.989Z,99393.81
2023-04-24T18:03:44.705Z,99390.13
2023-04-24T18:06:47.153Z,99407.81
2023-04-24T18:09:52.336Z,99439.63
2023-04-24T18:12:56.485Z,99457.84
2023-04-24T18:15:59.111Z,99484.72
2023-04-24T18:19:01.748Z,99491.47
2023-04-24T18:22:05.135Z,99487.34
2023-04-24T18:29:25.390Z,99506.16
2023-04-24T18:32:27.942Z,99501.28
2023-04-24T18:35:30.302Z,99512.59
2023-04-24T18:38:32.684Z,99517.44
2023-04-24T18:41:35.449Z,99504.50
2023-04-24T18:44:42.853Z,99513.75
2023-04-24T18:47:45.587Z,99512.94
2023-04-24T18:50:47.974Z,99507.47
2023-04-24T18:53:50.387Z,99496.38
2023-04-24T18:56:53.008Z,99489.22
2023-04-24T18:59:55.542Z,99487.97
2023-04-24T19:02:57.968Z,99478.50
2023-04-24T19:06:00.406Z,99478.00
2023-04-24T19:09:03.018Z,99471.72
2023-04-24T19:12:06.685Z,99454.41
2023-04-24T19:15:12.975Z,99449.22
2023-04-24T19:18:17.181Z,99430.31
2023-04-24T19:21:19.485Z,99428.16
2023-04-24T19:24:21.944Z,99417.09
2023-04-24T19:27:24.731Z,99434.16
2023-04-24T19:30:27.041Z,99446.34
2023-04-24T19:33:29.589Z,99441.72
2023-04-24T19:36:32.511Z,99445.66
2023-04-24T19:39:34.914Z,99431.91
2023-04-24T19:45:45.199Z,99456.47
2023-04-24T19:48:47.835Z,99453.88
2023-04-24T19:51:50.424Z,99450.41
2023-04-24T19:54:53.196Z,99448.38
2023-04-24T19:57:55.752Z,99434.97
2023-04-24T20:00:58.501Z,99421.94
2023-04-24T20:04:02.235Z,99431.94
2023-04-24T20:07:04.835Z,99412.78
2023-04-24T20:10:07.734Z,99425.41
2023-04-24T20:13:10.053Z,99415.63
2023-04-24T20:16:12.472Z,99424.91
2023-04-24T20:19:14.885Z,99412.63
2023-04-24T20:22:17.381Z,99415.09
2023-04-24T20:25:19.740Z,99417.47
2023-04-24T20:28:22.204Z,99383.63
2023-04-24T20:31:25.602Z,99387.41
2023-04-24T20:34:28.161Z,99385.09
2023-04-24T20:37:30.747Z,99378.03
2023-04-24T20:40:33.312Z,99363.75
2023-04-24T20:43:35.779Z,99362.44
2023-04-24T20:46:38.382Z,99357.31
2023-04-24T20:49:40.933Z,99357.41
2023-04-24T20:52:43.253Z,99359.53
2023-04-24T20:55:45.682Z,99329.41
2023-04-24T20:58:48.859Z,99341.53
2023-04-24T21:01:51.537Z,99331.88
2023-04-24T21:04:53.926Z,99327.91
2023-04-24T21:07:56.445Z,99331.50
2023-04-24T21:10:58.908Z,99328.28
2023-04-24T21:14:01.426Z,99323.78
2023-04-24T21:17:03.988Z,99331.38
2023-04-24T21:20:08.571Z,99320.19
2023-04-24T21:23:10.963Z,99318.28
2023-04-24T21:26:13.574Z,99323.06
2023-04-24T21:29:16.033Z,99327.28
2023-04-24T21:32:18.590Z,99319.97
2023-04-24T21:35:21.074Z,99316.22
2023-04-24T21:38:25.112Z,99327.78
2023-04-24T21:41:27.496Z,99336.28
2023-04-24T21:44:29.822Z,99335.81
2023-04-24T21:47:32.391Z,99335.03
2023-04-24T21:50:34.817Z,99331.25
2023-04-24T21:53:37.263Z,99318.50
2023-04-24T21:56:41.567Z,99308.84
2023-04-24T21:59:44.468Z,99310.84
2023-04-24T22:02:46.956Z,99307.41
2023-04-24T22:05:49.306Z,99305.94
2023-04-24T22:08:51.779Z,99307.81
2023-04-24T22:11:54.396Z,99305.56
2023-04-24T22:14:56.641Z,99296.50
2023-04-24T22:17:59.008Z,99295.97
2023-04-24T22:21:01.408Z,99304.88
2023-04-24T22:24:03.888Z,99298.28
2023-04-24T22:27:06.273Z,99311.00
2023-04-24T22:30:09.621Z,99300.09
2023-04-24T22:33:12.273Z,99292.69
2023-04-24T22:36:15.048Z,99299.63
2023-04-24T22:39:17.662Z,99301.81
2023-04-24T22:42:20.021Z,99313.56
2023-04-24T22:45:26.242Z,99310.38
2023-04-24T22:48:28.595Z,99314.63
2023-04-24T22:51:33.681Z,99319.69
2023-04-24T22:54:36.072Z,99316.72
2023-04-24T22:57:38.921Z,99309.00
2023-04-24T23:00:41.290Z,99308.94
2023-04-24T23:03:43.799Z,99313.88
2023-04-24T23:06:46.512Z,99323.31
2023-04-24T23:09:48.876Z,99330.88
2023-04-24T23:12:51.328Z,99322.94
2023-04-24T23:15:54.856Z,99326.69
2023-04-24T23:18:57.564Z,99324.75
2023-04-24T23:22:00.739Z,99318.34
2023-04-24T23:25:03.026Z,99325.81
2023-04-24T23:28:05.720Z,99316.53
2023-04-24T23:31:08.132Z,99321.63
2023-04-24T23:34:10.454Z,99316.91
2023-04-24T23:37:12.804Z,99310.78
2023-04-24T23:40:15.390Z,99308.03
2023-04-24T23:43:17.640Z,99300.22
2023-04-24T23:46:20.073Z,99292.91
2023-04-24T23:49:22.364Z,99295.78
2023-04-24T23:52:24.682Z,99285.66
2023-04-24T23:55:26.992Z,99288.63
2023-04-24T23:58:30.105Z,99295.53
